Time;durP1;ratioP1;P1;durP2;ratioP2;P2;SDS_P1;SDS_P2;PMS_P1;PMS_P2;Temp;Humidity;BMP_temperature;BMP_pressure;BME280_temperature;BME280_humidity;BME280_pressure;Samples;Min_cycle;Max_cycle;Signal;HPM_P1;HPM_P2
2024/04/07 00:01:44;;;;;;;;;;;;;;;15.84;71.82;100845.01;106806;1275;25073;-53
2024/04/07 00:04:11;;;;;;;;;;;;;;;15.80;71.98;100836.58;107019;1268;25160;-51
2024/04/07 00:06:40;;;;;;;;;;;;;;;15.77;72.47;100831.80;106842;1272;25223;-53
2024/04/07 00:09:06;;;;;;;;;;;;;;;15.75;72.87;100836.27;107166;1270;22935;-51
2024/04/07 00:11:33;;;;;;;;;;;;;;;15.72;72.97;100827.72;106989;1274;22453;-51
2024/04/07 00:13:59;;;;;;;;;;;;;;;15.71;73.14;100832.06;106819;1268;22559;-52
2024/04/07 00:16:29;;;;;;;;;;;;;;;15.71;73.29;100822.48;106870;1274;22540;-52
2024/04/07 00:18:55;;;;;;;;;;;;;;;15.72;73.47;100831.15;106902;1273;25349;-52
2024/04/07 00:21:22;;;;;;;;;;;;;;;15.74;73.52;100824.07;106970;1275;22757;-52
2024/04/07 00:23:49;;;;;;;;;;;;;;;15.75;73.75;100817.67;106854;1268;22500;-53
2024/04/07 00:26:16;;;;;;;;;;;;;;;15.77;73.94;100820.03;106974;1275;22607;-52
2024/04/07 00:28:43;;;;;;;;;;;;;;;15.78;73.85;100844.38;106876;1274;22527;-53
2024/04/07 00:31:10;;;;;;;;;;;;;;;15.78;73.48;100848.13;106969;1274;24167;-54
2024/04/07 00:33:36;;;;;;;;;;;;;;;15.76;73.28;100860.17;107010;1268;22502;-53
2024/04/07 00:36:03;;;;;;;;;;;;;;;15.75;73.28;100868.31;106887;1271;25214;-53
2024/04/07 00:38:30;;;;;;;;;;;;;;;15.74;73.27;100876.58;107095;1275;22651;-52
2024/04/07 00:40:58;;;;;;;;;;;;;;;15.72;73.41;100876.01;106958;1273;22498;-53
2024/04/07 00:43:26;;;;;;;;;;;;;;;15.70;73.25;100873.64;106873;1271;25372;-53
2024/04/07 00:45:56;;;;;;;;;;;;;;;15.68;73.17;100864.20;107015;1269;24280;-54
2024/04/07 00:48:26;;;;;;;;;;;;;;;15.65;73.29;100861.36;106940;1275;25818;-54
2024/04/07 00:50:56;;;;;;;;;;;;;;;15.63;73.49;100870.60;106803;1275;24165;-53
2024/04/07 00:53:22;;;;;;;;;;;;;;;15.61;73.78;100865.79;106880;1269;22624;-53
2024/04/07 00:55:52;;;;;;;;;;;;;;;15.59;73.59;100866.48;106877;1275;22461;-54
2024/04/07 00:58:18;;;;;;;;;;;;;;;15.57;73.47;100892.29;106859;1260;25412;-54
2024/04/07 01:00:45;;;;;;;;;;;;;;;15.56;73.33;100900.39;107007;1272;22467;-53
2024/04/07 01:03:12;;;;;;;;;;;;;;;15.55;73.15;100911.50;107063;1274;22678;-53
2024/04/07 01:05:46;;;;;;;;;;;;;;;15.54;73.25;100911.77;106996;1274;24022;-55
2024/04/07 01:08:25;;;;;;;;;;;;;;;15.53;73.37;100929.82;106801;1262;22740;-52
2024/04/07 01:10:52;;;;;;;;;;;;;;;15.52;73.28;100938.41;106851;1271;22446;-52
2024/04/07 01:13:24;;;;;;;;;;;;;;;15.52;73.19;100953.91;106853;1262;25214;-52
2024/04/07 01:15:51;;;;;;;;;;;;;;;15.51;73.05;100944.24;107090;1271;25292;-51
2024/04/07 01:18:21;;;;;;;;;;;;;;;15.51;73.00;100927.14;107070;1274;22603;-53
2024/04/07 01:20:47;;;;;;;;;;;;;;;15.50;72.94;100933.63;106976;1275;24142;-53
2024/04/07 01:23:18;;;;;;;;;;;;;;;15.49;72.70;100934.37;106900;1275;24266;-53
2024/04/07 01:25:44;;;;;;;;;;;;;;;15.50;72.52;100921.84;106809;1275;24267;-51
2024/04/07 01:28:14;;;;;;;;;;;;;;;15.50;72.03;100923.80;107038;1274;22454;-50
2024/04/07 01:30:42;;;;;;;;;;;;;;;15.51;71.74;100968.45;106980;1275;22445;-51
2024/04/07 01:33:10;;;;;;;;;;;;;;;15.52;71.48;100994.16;106914;1274;22812;-50
2024/04/07 01:35:36;;;;;;;;;;;;;;;15.53;71.14;100997.15;106948;1275;22624;-51
2024/04/07 01:38:04;;;;;;;;;;;;;;;15.54;71.04;101007.73;107094;1270;22496;-54
2024/04/07 01:40:30;;;;;;;;;;;;;;;15.54;70.70;100999.89;107012;1275;24269;-51
2024/04/07 01:42:57;;;;;;;;;;;;;;;15.56;70.47;100999.73;106814;1271;25304;-51
2024/04/07 01:45:23;;;;;;;;;;;;;;;15.58;70.36;101015.45;106810;1275;22429;-51
2024/04/07 01:47:50;;;;;;;;;;;;;;;15.61;70.23;101023.98;106841;1274;22515;-50
2024/04/07 01:50:17;;;;;;;;;;;;;;;15.64;70.15;101016.24;106928;1275;22628;-49
2024/04/07 01:52:46;;;;;;;;;;;;;;;15.68;70.15;101019.15;106837;1274;25939;-50
2024/04/07 01:55:12;;;;;;;;;;;;;;;15.71;69.95;101026.41;106852;1273;24621;-51
2024/04/07 01:57:39;;;;;;;;;;;;;;;15.75;69.81;101018.15;106841;1268;22438;-49
2024/04/07 02:00:07;;;;;;;;;;;;;;;15.78;69.89;101014.13;106889;1275;25399;-51
2024/04/07 02:02:34;;;;;;;;;;;;;;;15.81;70.01;101020.17;106900;1275;24178;-50
2024/04/07 02:05:00;;;;;;;;;;;;;;;15.83;70.26;101018.96;106749;1275;340352;-52
2024/04/07 02:07:27;;;;;;;;;;;;;;;15.83;70.29;101053.37;106923;1274;24205;-52
2024/04/07 02:09:54;;;;;;;;;;;;;;;15.84;70.47;101067.41;106908;1271;25343;-53
2024/04/07 02:12:20;;;;;;;;;;;;;;;15.83;70.66;101056.77;106851;1275;24243;-52
2024/04/07 02:14:47;;;;;;;;;;;;;;;15.81;70.76;101073.80;106881;1272;22532;-54
2024/04/07 02:17:13;;;;;;;;;;;;;;;15.80;70.90;101089.38;106944;1275;22920;-53
2024/04/07 02:19:41;;;;;;;;;;;;;;;15.79;71.10;101079.31;106964;1275;24142;-52
2024/04/07 02:22:08;;;;;;;;;;;;;;;15.77;71.17;101109.93;107068;1274;23023;-53
2024/04/07 02:24:34;;;;;;;;;;;;;;;15.75;71.27;101126.27;107069;1274;24235;-50
2024/04/07 02:27:01;;;;;;;;;;;;;;;15.73;71.27;101154.39;106906;1275;22514;-49
2024/04/07 02:29:28;;;;;;;;;;;;;;;15.72;71.42;101162.88;106779;1275;22731;-50
2024/04/07 02:31:55;;;;;;;;;;;;;;;15.70;71.48;101166.92;106813;1275;23915;-51
2024/04/07 02:34:21;;;;;;;;;;;;;;;15.67;71.70;101179.77;106853;1275;22613;-51
2024/04/07 02:36:48;;;;;;;;;;;;;;;15.65;71.80;101176.53;106886;1271;22437;-53
2024/04/07 02:39:18;;;;;;;;;;;;;;;15.62;71.85;101156.42;106854;1274;25343;-51
2024/04/07 02:41:46;;;;;;;;;;;;;;;15.59;72.08;101165.85;106820;1275;22783;-54
2024/04/07 02:44:12;;;;;;;;;;;;;;;15.57;72.09;101165.13;106891;1274;22491;-53
2024/04/07 02:49:24;;;;;;;;;;;;;;;15.53;72.27;101151.92;107049;1274;24140;-52
2024/04/07 02:51:51;;;;;;;;;;;;;;;15.51;72.32;101167.87;106832;1270;22634;-53
2024/04/07 02:54:17;;;;;;;;;;;;;;;15.50;72.34;101183.61;106877;1275;22767;-54
2024/04/07 02:56:44;;;;;;;;;;;;;;;15.50;72.23;101177.91;106989;1274;24098;-53
2024/04/07 02:59:13;;;;;;;;;;;;;;;15.51;72.26;101164.52;106878;1275;24288;-52
2024/04/07 03:01:39;;;;;;;;;;;;;;;15.52;72.22;101157.69;106843;1269;22583;-53
2024/04/07 03:04:06;;;;;;;;;;;;;;;15.53;71.95;101149.26;106985;1275;22598;-54
2024/04/07 03:06:32;;;;;;;;;;;;;;;15.53;71.77;101144.30;107021;1275;22752;-53
2024/04/07 03:08:59;;;;;;;;;;;;;;;15.51;71.67;101148.29;106895;1271;22497;-53
2024/04/07 03:11:28;;;;;;;;;;;;;;;15.51;71.57;101152.60;106935;1274;25218;-54
2024/04/07 03:13:54;;;;;;;;;;;;;;;15.49;71.27;101155.02;106958;1275;25348;-53
2024/04/07 03:16:21;;;;;;;;;;;;;;;15.47;71.05;101162.10;107008;1272;23398;-53
2024/04/07 03:18:48;;;;;;;;;;;;;;;15.45;70.71;101161.40;106971;1275;22460;-53
2024/04/07 03:21:15;;;;;;;;;;;;;;;15.42;70.56;101164.30;106836;1275;24224;-53
2024/04/07 03:23:51;;;;;;;;;;;;;;;15.39;70.06;101166.63;106917;1260;22616;-54
2024/04/07 03:26:23;;;;;;;;;;;;;;;15.35;69.84;101161.71;106904;1274;22449;-54
2024/04/07 03:28:49;;;;;;;;;;;;;;;15.33;69.62;101164.55;106919;1257;25896;-53
2024/04/07 03:31:16;;;;;;;;;;;;;;;15.31;69.58;101161.88;106935;1274;23881;-54
2024/04/07 03:33:42;;;;;;;;;;;;;;;15.28;69.42;101167.24;106932;1274;22440;-52
2024/04/07 03:36:09;;;;;;;;;;;;;;;15.25;69.28;101171.34;106846;1269;22737;-50
2024/04/07 03:38:35;;;;;;;;;;;;;;;15.23;69.25;101166.48;106825;1275;22499;-49
2024/04/07 03:41:02;;;;;;;;;;;;;;;15.22;69.19;101153.58;106841;1269;22880;-53
2024/04/07 03:43:29;;;;;;;;;;;;;;;15.20;69.25;101147.64;106887;1275;22750;-53
2024/04/07 03:46:04;;;;;;;;;;;;;;;15.18;68.97;101147.09;107047;1274;24124;-50
2024/04/07 03:48:31;;;;;;;;;;;;;;;15.17;68.95;101151.81;107184;1274;24272;-51
2024/04/07 03:50:58;;;;;;;;;;;;;;;15.15;68.83;101151.56;107000;1263;25343;-51
2024/04/07 03:53:27;;;;;;;;;;;;;;;15.13;68.80;101142.25;106910;1271;22446;-49
2024/04/07 03:55:53;;;;;;;;;;;;;;;15.13;69.03;101139.96;106855;1275;22614;-52
2024/04/07 03:58:20;;;;;;;;;;;;;;;15.12;68.61;101143.60;106898;1272;22576;-49
2024/04/07 04:00:46;;;;;;;;;;;;;;;15.12;68.43;101151.27;106882;1262;22590;-50
2024/04/07 04:03:13;;;;;;;;;;;;;;;15.11;67.85;101138.30;106987;1275;24005;-52
2024/04/07 04:05:40;;;;;;;;;;;;;;;15.13;67.68;101128.61;106887;1272;25400;-49
2024/04/07 04:08:07;;;;;;;;;;;;;;;15.13;67.57;101135.84;106846;1271;23844;-53
2024/04/07 04:10:37;;;;;;;;;;;;;;;15.15;67.45;101136.09;106857;1274;22539;-49
2024/04/07 04:13:03;;;;;;;;;;;;;;;15.17;67.16;101136.16;106984;1274;25172;-51
2024/04/07 04:15:30;;;;;;;;;;;;;;;15.19;66.92;101151.84;106918;1275;22842;-53
2024/04/07 04:18:00;;;;;;;;;;;;;;;15.21;66.52;101148.48;106969;1274;23870;-51
2024/04/07 04:20:28;;;;;;;;;;;;;;;15.23;66.38;101146.95;107000;1275;22729;-51
2024/04/07 04:22:55;;;;;;;;;;;;;;;15.24;66.11;101134.75;106993;1273;22684;-52
2024/04/07 04:25:22;;;;;;;;;;;;;;;15.25;65.52;101122.44;106983;1275;22512;-52
2024/04/07 04:27:49;;;;;;;;;;;;;;;15.25;65.43;101121.48;106828;1269;22505;-53
2024/04/07 04:30:15;;;;;;;;;;;;;;;15.25;65.05;101127.59;106797;1275;25889;-53
2024/04/07 04:32:42;;;;;;;;;;;;;;;15.25;64.88;101127.21;106940;1275;24424;-50
2024/04/07 04:35:10;;;;;;;;;;;;;;;15.24;64.52;101138.48;106963;1275;22507;-50
2024/04/07 04:37:36;;;;;;;;;;;;;;;15.23;64.47;101147.81;106860;1272;22629;-50
2024/04/07 04:40:08;;;;;;;;;;;;;;;15.23;64.12;101159.95;106833;1275;22434;-53
2024/04/07 04:42:38;;;;;;;;;;;;;;;15.21;63.80;101164.67;106866;1275;25040;-52
2024/04/07 04:45:06;;;;;;;;;;;;;;;15.20;63.54;101166.55;106918;1271;22420;-53
2024/04/07 04:47:33;;;;;;;;;;;;;;;15.20;63.46;101177.91;107104;1274;24323;-51
2024/04/07 04:50:00;;;;;;;;;;;;;;;15.19;63.34;101173.73;106975;1275;25388;-53
2024/04/07 04:52:30;;;;;;;;;;;;;;;15.19;63.09;101165.52;106820;1275;22834;-51
2024/04/07 04:54:57;;;;;;;;;;;;;;;15.18;62.95;101166.67;106875;1275;22539;-51
2024/04/07 04:57:23;;;;;;;;;;;;;;;15.18;62.67;101157.76;106832;1272;22526;-51
2024/04/07 04:59:52;;;;;;;;;;;;;;;15.18;62.76;101162.39;106960;1274;25228;-51
2024/04/07 05:02:19;;;;;;;;;;;;;;;15.17;62.64;101187.55;106889;1275;22982;-53
2024/04/07 05:04:46;;;;;;;;;;;;;;;15.17;62.38;101161.04;106852;1272;22614;-52
2024/04/07 05:07:14;;;;;;;;;;;;;;;15.17;61.88;101152.72;106864;1270;25359;-49
2024/04/07 05:09:41;;;;;;;;;;;;;;;15.16;61.89;101160.36;106847;1275;25278;-51
2024/04/07 05:12:08;;;;;;;;;;;;;;;15.16;61.64;101157.72;106855;1268;22467;-49
2024/04/07 05:14:35;;;;;;;;;;;;;;;15.16;61.64;101166.80;106806;1274;22495;-52
2024/04/07 05:17:01;;;;;;;;;;;;;;;15.16;61.37;101189.92;106891;1265;22447;-53
2024/04/07 05:19:27;;;;;;;;;;;;;;;15.16;61.12;101189.44;106873;1275;24282;-53
2024/04/07 05:21:54;;;;;;;;;;;;;;;15.16;61.10;101193.14;106833;1275;22834;-54
2024/04/07 05:24:21;;;;;;;;;;;;;;;15.15;61.01;101194.25;106900;1275;22521;-54
2024/04/07 05:26:48;;;;;;;;;;;;;;;15.15;60.85;101203.38;106982;1275;24285;-53
2024/04/07 05:29:17;;;;;;;;;;;;;;;15.15;61.11;101205.88;106870;1275;24175;-53
2024/04/07 05:31:45;;;;;;;;;;;;;;;15.14;61.01;101209.66;106901;1274;22556;-54
2024/04/07 05:34:12;;;;;;;;;;;;;;;15.15;61.11;101217.46;107160;1274;22429;-53
2024/04/07 05:36:39;;;;;;;;;;;;;;;15.14;61.16;101223.71;107034;1275;25422;-52
2024/04/07 05:39:06;;;;;;;;;;;;;;;15.14;61.25;101230.35;106893;1273;22499;-49
2024/04/07 05:41:32;;;;;;;;;;;;;;;15.13;61.37;101237.50;106849;1275;24143;-50
2024/04/07 05:43:59;;;;;;;;;;;;;;;15.13;61.46;101242.16;106790;1269;24307;-52
2024/04/07 05:46:26;;;;;;;;;;;;;;;15.12;61.57;101241.88;106825;1275;25348;-53
2024/04/07 05:48:52;;;;;;;;;;;;;;;15.11;61.55;101244.59;106845;1275;22504;-52
2024/04/07 05:51:19;;;;;;;;;;;;;;;15.11;61.63;101249.21;106823;1271;23214;-53
2024/04/07 05:53:45;;;;;;;;;;;;;;;15.11;61.88;101250.27;106868;1275;25278;-52
2024/04/07 05:56:12;;;;;;;;;;;;;;;15.11;61.78;101252.07;107046;1275;22492;-52
2024/04/07 05:58:39;;;;;;;;;;;;;;;15.11;62.20;101262.42;106845;1271;22591;-53
2024/04/07 06:01:07;;;;;;;;;;;;;;;15.10;62.32;101271.91;106893;1275;22510;-51
2024/04/07 06:03:34;;;;;;;;;;;;;;;15.10;62.38;101287.56;106818;1275;22557;-53
2024/04/07 06:06:01;;;;;;;;;;;;;;;15.09;62.36;101288.11;106877;1273;25347;-54
2024/04/07 06:08:28;;;;;;;;;;;;;;;15.10;62.58;101287.73;106815;1275;23913;-52
2024/04/07 06:10:55;;;;;;;;;;;;;;;15.10;62.61;101294.67;106852;1273;24063;-53
2024/04/07 06:13:21;;;;;;;;;;;;;;;15.10;62.71;101298.27;106862;1275;25523;-52
2024/04/07 06:15:47;;;;;;;;;;;;;;;15.09;62.76;101297.77;106829;1274;22685;-51
2024/04/07 06:18:20;;;;;;;;;;;;;;;15.10;62.69;101299.52;106813;1273;22497;-53
2024/04/07 06:20:46;;;;;;;;;;;;;;;15.10;62.83;101297.38;106826;1268;22518;-54
2024/04/07 06:23:13;;;;;;;;;;;;;;;15.10;63.04;101294.50;106915;1274;22514;-51
2024/04/07 06:25:39;;;;;;;;;;;;;;;15.11;63.06;101298.19;106947;1275;22749;-51
2024/04/07 06:28:08;;;;;;;;;;;;;;;15.11;63.11;101295.48;106812;1274;25223;-54
2024/04/07 06:30:35;;;;;;;;;;;;;;;15.12;63.22;101301.14;106858;1275;22430;-51
2024/04/07 06:33:04;;;;;;;;;;;;;;;15.12;63.10;101307.38;106899;1275;24257;-51
2024/04/07 06:35:31;;;;;;;;;;;;;;;15.12;63.18;101311.84;106941;1275;24110;-53
2024/04/07 06:37:58;;;;;;;;;;;;;;;15.10;63.08;101309.79;106967;1273;25226;-53
2024/04/07 06:40:24;;;;;;;;;;;;;;;15.10;63.32;101314.27;106862;1269;24145;-53
2024/04/07 06:42:54;;;;;;;;;;;;;;;15.10;63.49;101314.08;106812;1268;24198;-51
2024/04/07 06:45:20;;;;;;;;;;;;;;;15.10;63.56;101320.84;106860;1272;22448;-53
2024/04/07 06:47:47;;;;;;;;;;;;;;;15.11;63.62;101316.17;106888;1275;22809;-52
2024/04/07 06:50:13;;;;;;;;;;;;;;;15.12;63.63;101312.33;106768;1275;22510;-51
2024/04/07 06:52:40;;;;;;;;;;;;;;;15.14;63.73;101315.78;106822;1275;24203;-53
2024/04/07 06:55:07;;;;;;;;;;;;;;;15.16;63.94;101317.96;106965;1275;25391;-50
2024/04/07 06:57:33;;;;;;;;;;;;;;;15.17;64.01;101317.13;106913;1273;22499;-51
2024/04/07 07:00:00;;;;;;;;;;;;;;;15.19;63.94;101320.91;106842;1275;22718;-53
2024/04/07 07:02:29;;;;;;;;;;;;;;;15.20;63.86;101321.74;106975;1270;24282;-51
2024/04/07 07:04:56;;;;;;;;;;;;;;;15.22;64.00;101326.46;107018;1269;22518;-53
2024/04/07 07:07:22;;;;;;;;;;;;;;;15.23;63.90;101327.44;106912;1269;23870;-51
2024/04/07 07:09:49;;;;;;;;;;;;;;;15.26;64.03;101328.16;106822;1267;23841;-51
2024/04/07 07:12:15;;;;;;;;;;;;;;;15.29;64.28;101330.95;106887;1275;22597;-51
2024/04/07 07:14:42;;;;;;;;;;;;;;;15.33;64.33;101330.84;106890;1274;24135;-50
2024/04/07 07:17:08;;;;;;;;;;;;;;;15.37;64.42;101330.05;106850;1275;22500;-51
2024/04/07 07:19:35;;;;;;;;;;;;;;;15.39;64.33;101336.46;106825;1274;22437;-52
2024/04/07 07:22:02;;;;;;;;;;;;;;;15.41;64.23;101340.27;106871;1275;23914;-49
2024/04/07 07:24:28;;;;;;;;;;;;;;;15.42;64.25;101338.27;106937;1273;25407;-52
2024/04/07 07:26:55;;;;;;;;;;;;;;;15.43;64.14;101339.82;106855;1272;22460;-52
2024/04/07 07:29:22;;;;;;;;;;;;;;;15.44;64.32;101346.15;106911;1275;25225;-52
2024/04/07 07:31:48;;;;;;;;;;;;;;;15.44;64.23;101347.36;107026;1275;22649;-50
2024/04/07 07:34:15;;;;;;;;;;;;;;;15.46;64.32;101348.52;106929;1267;22879;-52
2024/04/07 07:36:42;;;;;;;;;;;;;;;15.47;64.52;101347.55;106827;1272;22601;-50
2024/04/07 07:39:10;;;;;;;;;;;;;;;15.49;64.61;101357.02;106830;1274;25288;-52
2024/04/07 07:41:37;;;;;;;;;;;;;;;15.50;64.68;101360.17;106804;1275;25309;-49
2024/04/07 07:44:03;;;;;;;;;;;;;;;15.51;64.76;101371.31;106863;1270;25877;-52
2024/04/07 07:46:31;;;;;;;;;;;;;;;15.52;64.84;101375.50;106800;1267;24159;-53
2024/04/07 07:48:57;;;;;;;;;;;;;;;15.53;64.74;101373.30;106839;1274;22492;-49
2024/04/07 07:51:24;;;;;;;;;;;;;;;15.54;64.87;101376.77;106810;1275;25290;-53
2024/04/07 07:53:50;;;;;;;;;;;;;;;15.58;65.00;101379.55;106828;1275;22531;-52
2024/04/07 07:56:18;;;;;;;;;;;;;;;15.67;65.40;101380.56;106847;1269;23529;-53
2024/04/07 07:58:45;;;;;;;;;;;;;;;15.78;65.37;101390.30;106830;1275;25227;-53
2024/04/07 08:01:11;;;;;;;;;;;;;;;15.90;65.58;101377.02;106813;1275;22440;-50
2024/04/07 08:03:38;;;;;;;;;;;;;;;16.04;65.39;101373.73;106805;1275;22434;-53
2024/04/07 08:06:05;;;;;;;;;;;;;;;16.17;65.19;101381.52;106797;1267;25385;-53
2024/04/07 08:08:34;;;;;;;;;;;;;;;16.31;64.45;101381.91;106811;1274;22913;-52
2024/04/07 08:11:00;;;;;;;;;;;;;;;16.45;64.12;101373.96;106811;1274;22509;-50
2024/04/07 08:13:27;;;;;;;;;;;;;;;16.59;64.22;101380.05;106818;1267;25498;-52
2024/04/07 08:15:54;;;;;;;;;;;;;;;16.72;63.66;101381.11;106833;1275;25387;-52
2024/04/07 08:18:20;;;;;;;;;;;;;;;16.84;63.10;101388.25;106837;1273;25437;-52
2024/04/07 08:20:47;;;;;;;;;;;;;;;16.95;62.81;101391.73;106786;1267;24494;-51
2024/04/07 08:23:15;;;;;;;;;;;;;;;17.05;62.37;101397.44;106904;1272;24222;-53
2024/04/07 08:25:42;;;;;;;;;;;;;;;17.15;62.52;101394.70;107039;1275;24315;-53
2024/04/07 08:28:09;;;;;;;;;;;;;;;17.26;62.56;101391.21;106898;1257;25346;-53
2024/04/07 08:30:35;;;;;;;;;;;;;;;17.38;62.32;101402.36;106795;1275;25335;-52
2024/04/07 08:33:02;;;;;;;;;;;;;;;17.50;62.07;101398.27;106808;1275;23871;-54
2024/04/07 08:35:29;;;;;;;;;;;;;;;17.61;61.65;101396.88;106846;1268;24326;-54
2024/04/07 08:37:55;;;;;;;;;;;;;;;17.73;61.84;101399.73;106930;1275;22932;-54
2024/04/07 08:40:22;;;;;;;;;;;;;;;17.83;61.16;101395.02;106780;1275;23404;-54
2024/04/07 08:42:51;;;;;;;;;;;;;;;17.90;60.75;101397.02;106827;1275;24356;-53
2024/04/07 08:45:23;;;;;;;;;;;;;;;17.98;60.87;101394.97;106949;1275;22595;-53
2024/04/07 08:47:49;;;;;;;;;;;;;;;18.07;60.71;101393.20;106803;1275;22440;-54
2024/04/07 08:50:16;;;;;;;;;;;;;;;18.15;60.25;101390.94;106899;1275;25335;-53
2024/04/07 08:52:43;;;;;;;;;;;;;;;18.20;59.50;101387.45;106812;1275;22667;-54
2024/04/07 08:55:10;;;;;;;;;;;;;;;18.26;59.31;101391.61;106917;1274;22658;-54
2024/04/07 08:57:39;;;;;;;;;;;;;;;18.37;59.84;101392.02;106829;1275;22491;-54
2024/04/07 09:00:08;;;;;;;;;;;;;;;18.50;59.81;101392.62;106944;1275;22960;-53
2024/04/07 09:02:35;;;;;;;;;;;;;;;18.57;58.76;101394.31;106854;1275;22496;-54
2024/04/07 09:05:03;;;;;;;;;;;;;;;18.65;58.84;101400.15;106841;1275;22528;-55
2024/04/07 09:07:29;;;;;;;;;;;;;;;18.72;58.29;101399.24;107108;1275;23859;-54
2024/04/07 09:09:57;;;;;;;;;;;;;;;18.79;58.19;101405.97;107149;1275;24298;-55
2024/04/07 09:12:24;;;;;;;;;;;;;;;18.87;58.25;101404.29;106934;1275;24586;-54
2024/04/07 09:14:50;;;;;;;;;;;;;;;18.97;58.35;101405.80;106910;1275;24311;-55
2024/04/07 09:17:20;;;;;;;;;;;;;;;19.07;58.44;101417.29;106971;1275;22432;-45
2024/04/07 09:19:50;;;;;;;;;;;;;;;19.18;57.57;101419.96;106852;1275;22463;-45
2024/04/07 09:22:16;;;;;;;;;;;;;;;19.27;56.98;101419.52;106804;1275;22603;-45
2024/04/07 09:24:43;;;;;;;;;;;;;;;19.35;56.48;101410.27;106970;1275;22789;-46
2024/04/07 09:27:10;;;;;;;;;;;;;;;19.38;55.54;101415.73;106998;1275;22431;-45
2024/04/07 09:29:40;;;;;;;;;;;;;;;19.40;55.53;101416.45;106904;1275;25831;-55
2024/04/07 09:32:07;;;;;;;;;;;;;;;19.42;55.46;101418.44;106966;1275;22429;-55
2024/04/07 09:34:35;;;;;;;;;;;;;;;19.43;54.37;101419.27;107010;1275;22636;-53
2024/04/07 09:37:02;;;;;;;;;;;;;;;19.44;54.19;101422.23;106883;1273;25317;-55
2024/04/07 09:39:29;;;;;;;;;;;;;;;19.44;54.13;101417.39;106890;1273;25460;-55
2024/04/07 09:41:58;;;;;;;;;;;;;;;19.47;54.32;101418.77;106852;1275;25292;-55
2024/04/07 09:44:24;;;;;;;;;;;;;;;19.50;54.15;101420.88;106922;1275;22523;-55
2024/04/07 09:46:51;;;;;;;;;;;;;;;19.56;54.44;101419.64;106879;1275;25503;-55
2024/04/07 09:49:19;;;;;;;;;;;;;;;19.63;54.40;101422.61;107086;1275;22456;-55
2024/04/07 09:51:48;;;;;;;;;;;;;;;19.69;53.97;101421.00;107012;1275;24150;-55
2024/04/07 09:54:18;;;;;;;;;;;;;;;19.76;54.01;101420.42;106981;1271;22601;-55
2024/04/07 09:56:47;;;;;;;;;;;;;;;19.83;53.56;101416.11;106816;1275;22495;-55
2024/04/07 09:59:14;;;;;;;;;;;;;;;19.86;53.26;101410.44;106837;1275;22511;-55
2024/04/07 10:01:40;;;;;;;;;;;;;;;19.91;53.38;101415.42;106963;1275;23777;-55
2024/04/07 10:04:07;;;;;;;;;;;;;;;19.95;52.83;101422.58;106907;1275;24301;-56
2024/04/07 10:06:34;;;;;;;;;;;;;;;19.98;52.22;101423.11;106730;1275;22506;-55
2024/04/07 10:09:01;;;;;;;;;;;;;;;19.99;52.03;101419.94;106816;1270;25164;-56
2024/04/07 10:11:28;;;;;;;;;;;;;;;20.01;52.02;101422.09;106847;1275;23890;-55
2024/04/07 10:13:55;;;;;;;;;;;;;;;20.03;51.95;101420.44;106984;1273;22506;-56
2024/04/07 10:16:24;;;;;;;;;;;;;;;20.04;52.08;101417.45;106880;1275;24178;-55
2024/04/07 10:18:51;;;;;;;;;;;;;;;20.09;52.46;101421.17;106796;1275;25424;-56
2024/04/07 10:21:18;;;;;;;;;;;;;;;20.13;52.21;101419.72;106796;1274;22442;-56
2024/04/07 10:23:45;;;;;;;;;;;;;;;20.16;51.79;101417.92;106835;1275;23886;-56
2024/04/07 10:26:15;;;;;;;;;;;;;;;20.23;51.68;101414.60;106832;1275;22515;-55
2024/04/07 10:28:48;;;;;;;;;;;;;;;20.30;50.90;101408.35;106836;1275;22441;-55
2024/04/07 10:31:21;;;;;;;;;;;;;;;20.40;50.46;101402.88;106814;1273;22446;-56
2024/04/07 10:33:48;;;;;;;;;;;;;;;20.53;50.43;101400.20;106849;1275;22525;-55
2024/04/07 10:36:15;;;;;;;;;;;;;;;20.70;50.08;101399.81;106730;1275;22833;-56
2024/04/07 10:38:43;;;;;;;;;;;;;;;20.82;48.85;101390.30;106748;1273;23814;-56
2024/04/07 10:41:14;;;;;;;;;;;;;;;20.90;48.45;101396.40;106808;1273;22903;-55
2024/04/07 10:43:41;;;;;;;;;;;;;;;20.96;48.51;101395.48;106906;1275;25240;-55
2024/04/07 10:46:07;;;;;;;;;;;;;;;21.03;48.00;101391.12;106935;1275;22914;-55
2024/04/07 10:48:35;;;;;;;;;;;;;;;21.14;48.09;101389.52;107027;1275;25202;-55
2024/04/07 10:51:09;;;;;;;;;;;;;;;21.30;47.82;101387.48;106922;1275;22453;-55
2024/04/07 10:53:36;;;;;;;;;;;;;;;21.44;47.32;101387.25;106896;1275;22636;-55
2024/04/07 10:56:03;;;;;;;;;;;;;;;21.58;47.60;101390.63;106975;1275;22950;-55
2024/04/07 10:58:30;;;;;;;;;;;;;;;21.72;47.93;101393.69;106845;1275;25215;-55
2024/04/07 11:00:56;;;;;;;;;;;;;;;21.85;47.46;101395.64;106987;1275;22798;-55
2024/04/07 11:03:25;;;;;;;;;;;;;;;21.99;46.82;101392.52;106955;1275;22692;-55
2024/04/07 11:05:52;;;;;;;;;;;;;;;22.05;45.79;101388.38;106723;1275;22449;-55
2024/04/07 11:08:19;;;;;;;;;;;;;;;22.07;45.65;101380.89;107102;1275;22515;-55
2024/04/07 11:10:50;;;;;;;;;;;;;;;22.13;44.94;101379.08;106919;1275;25287;-55
2024/04/07 11:13:17;;;;;;;;;;;;;;;22.24;44.08;101378.96;106848;1275;22559;-56
2024/04/07 11:15:43;;;;;;;;;;;;;;;22.40;44.21;101377.38;106924;1275;22888;-55
2024/04/07 11:18:14;;;;;;;;;;;;;;;22.56;43.78;101376.75;106857;1275;24216;-56
2024/04/07 11:20:40;;;;;;;;;;;;;;;22.72;43.43;101376.31;106932;1273;22446;-55
2024/04/07 11:23:07;;;;;;;;;;;;;;;22.90;42.93;101379.23;106772;1275;24243;-56
2024/04/07 11:25:35;;;;;;;;;;;;;;;23.11;43.12;101379.56;106906;1275;22530;-56
2024/04/07 11:28:02;;;;;;;;;;;;;;;23.29;42.01;101376.44;106822;1275;22811;-56
2024/04/07 11:30:58;;;;;;;;;;;;;;;23.45;41.16;101377.13;106963;1273;24135;-56
2024/04/07 11:33:25;;;;;;;;;;;;;;;23.59;40.20;101381.31;106878;1275;22445;-56
2024/04/07 11:35:52;;;;;;;;;;;;;;;23.73;40.52;101377.92;106877;1275;22797;-56
2024/04/07 11:38:22;;;;;;;;;;;;;;;23.90;40.54;101373.77;106852;1275;24203;-56
2024/04/07 11:40:48;;;;;;;;;;;;;;;24.05;39.26;101370.95;106820;1275;22641;-56
2024/04/07 11:43:16;;;;;;;;;;;;;;;24.12;38.63;101370.20;106828;1275;22666;-56
2024/04/07 11:45:42;;;;;;;;;;;;;;;24.20;38.31;101368.41;106796;1275;22512;-56
2024/04/07 11:48:09;;;;;;;;;;;;;;;24.32;38.29;101370.98;106790;1273;22447;-56
2024/04/07 11:50:35;;;;;;;;;;;;;;;24.43;38.71;101381.88;106942;1275;24286;-56
2024/04/07 11:53:02;;;;;;;;;;;;;;;24.57;38.64;101376.42;107009;1275;22716;-56
2024/04/07 11:55:29;;;;;;;;;;;;;;;24.77;38.97;101374.13;107000;1275;22655;-56
2024/04/07 11:57:56;;;;;;;;;;;;;;;24.98;38.01;101360.30;106862;1275;22680;-56
2024/04/07 12:00:23;;;;;;;;;;;;;;;25.10;36.27;101358.98;106880;1256;25377;-56
2024/04/07 12:02:49;;;;;;;;;;;;;;;25.18;35.63;101358.83;106995;1275;23106;-56
2024/04/07 12:05:16;;;;;;;;;;;;;;;25.24;35.60;101356.67;106960;1275;25304;-56
2024/04/07 12:07:43;;;;;;;;;;;;;;;25.38;36.05;101360.57;107030;1275;24284;-55
2024/04/07 12:10:09;;;;;;;;;;;;;;;25.55;36.19;101355.92;107064;1275;24769;-55
2024/04/07 12:12:36;;;;;;;;;;;;;;;25.74;35.94;101350.88;106922;1275;22515;-55
2024/04/07 12:15:04;;;;;;;;;;;;;;;25.94;35.59;101354.48;106829;1275;22813;-55
2024/04/07 12:17:30;;;;;;;;;;;;;;;26.05;35.07;101353.05;106899;1275;22555;-55
2024/04/07 12:19:57;;;;;;;;;;;;;;;26.16;34.82;101349.20;106975;1275;22528;-56
2024/04/07 12:22:23;;;;;;;;;;;;;;;26.30;34.25;101350.04;106827;1275;22498;-55
2024/04/07 12:24:50;;;;;;;;;;;;;;;26.41;34.08;101339.33;106950;1275;22519;-55
2024/04/07 12:27:18;;;;;;;;;;;;;;;26.52;34.10;101346.14;106927;1272;22530;-56
2024/04/07 12:29:45;;;;;;;;;;;;;;;26.60;33.33;101350.13;106857;1275;25352;-56